createdAt,value
2023-08-03T00:01:41.453Z,1.75
2023-08-03T00:04:44.525Z,1.52
2023-08-03T00:07:50.673Z,1.77
2023-08-03T00:10:52.941Z,1.30
2023-08-03T00:13:55.214Z,1.30
2023-08-03T00:16:57.526Z,1.40
2023-08-03T00:20:01.970Z,1.40
2023-08-03T00:23:04.315Z,1.30
2023-08-03T00:26:06.622Z,1.45
2023-08-03T00:29:08.987Z,1.23
2023-08-03T00:32:11.334Z,1.48
2023-08-03T00:35:13.682Z,1.40
2023-08-03T00:38:16.043Z,1.55
2023-08-03T00:41:18.353Z,1.50
2023-08-03T00:44:20.779Z,1.40
2023-08-03T00:47:23.323Z,1.38
2023-08-03T00:50:27.264Z,1.55
2023-08-03T00:53:31.165Z,1.40
2023-08-03T00:56:33.733Z,1.50
2023-08-03T00:59:36.647Z,1.27
2023-08-03T01:02:39.035Z,1.10
2023-08-03T01:05:41.441Z,1.55
2023-08-03T01:08:43.896Z,1.20
2023-08-03T01:11:47.280Z,1.25
2023-08-03T01:14:49.841Z,1.20
2023-08-03T01:17:52.331Z,1.30
2023-08-03T01:20:55.191Z,1.75
2023-08-03T01:23:59.207Z,1.55
2023-08-03T01:27:03.168Z,1.50
2023-08-03T01:30:06.414Z,1.50
2023-08-03T01:33:08.954Z,1.40
2023-08-03T01:36:12.116Z,1.30
2023-08-03T01:39:14.652Z,1.60
2023-08-03T01:42:16.946Z,1.02
2023-08-03T01:45:21.203Z,1.20
2023-08-03T01:48:23.566Z,1.60
2023-08-03T01:51:25.904Z,1.63
2023-08-03T01:54:28.435Z,1.73
2023-08-03T01:57:30.713Z,1.50
2023-08-03T02:00:33.089Z,1.80
2023-08-03T02:03:36.444Z,1.33
2023-08-03T02:06:39.605Z,1.48
2023-08-03T02:09:42.025Z,1.40
2023-08-03T02:12:44.436Z,1.80
2023-08-03T02:15:47.551Z,1.60
2023-08-03T02:18:50.360Z,1.55
2023-08-03T02:21:52.727Z,1.50
2023-08-03T02:24:55.052Z,1.70
2023-08-03T02:27:57.507Z,1.73
2023-08-03T02:30:59.926Z,1.63
2023-08-03T02:34:10.791Z,1.90
2023-08-03T02:37:17.944Z,2.10
2023-08-03T02:40:22.441Z,1.95
2023-08-03T02:43:27.535Z,2.08
2023-08-03T02:46:31.761Z,2.20
2023-08-03T02:49:35.008Z,2.15
2023-08-03T02:52:41.069Z,2.30
2023-08-03T02:55:43.608Z,2.30
2023-08-03T02:58:46.914Z,2.33
2023-08-03T03:01:58.587Z,2.00
2023-08-03T03:05:07.309Z,2.10
2023-08-03T03:08:12.292Z,2.20
2023-08-03T03:11:14.837Z,2.15
2023-08-03T03:14:17.275Z,2.55
2023-08-03T03:17:19.840Z,2.27
2023-08-03T03:20:24.456Z,2.28
2023-08-03T03:23:26.907Z,2.83
2023-08-03T03:26:29.280Z,2.70
2023-08-03T03:29:31.703Z,2.38
2023-08-03T03:32:34.250Z,2.70
2023-08-03T03:35:36.838Z,2.60
2023-08-03T03:38:39.364Z,2.92
2023-08-03T03:41:41.741Z,2.60
2023-08-03T03:44:44.268Z,2.40
2023-08-03T03:47:46.826Z,2.63
2023-08-03T03:50:49.239Z,2.80
2023-08-03T03:53:53.968Z,2.90
2023-08-03T03:56:56.517Z,2.25
2023-08-03T04:00:06.066Z,3.00
2023-08-03T04:03:17.055Z,2.47
2023-08-03T04:06:19.628Z,2.58
2023-08-03T04:09:22.338Z,2.85
2023-08-03T04:12:24.684Z,2.65
2023-08-03T04:15:27.066Z,2.83
2023-08-03T04:18:29.519Z,2.87
2023-08-03T04:21:32.639Z,2.97
2023-08-03T04:24:35.038Z,3.10
2023-08-03T04:27:38.192Z,3.30
2023-08-03T04:30:42.540Z,2.47
2023-08-03T04:33:46.817Z,3.17
2023-08-03T04:36:49.335Z,3.20
2023-08-03T04:39:51.946Z,3.38
2023-08-03T04:42:54.579Z,3.33
2023-08-03T04:45:57.511Z,3.35
2023-08-03T04:49:00.202Z,3.20
2023-08-03T04:52:05.729Z,2.80
2023-08-03T04:55:08.625Z,3.28
2023-08-03T04:58:11.159Z,2.97
2023-08-03T05:01:15.863Z,3.00
2023-08-03T05:04:18.693Z,3.17
2023-08-03T05:07:22.187Z,3.40
2023-08-03T05:10:24.670Z,3.17
2023-08-03T05:13:27.251Z,3.33
2023-08-03T05:16:29.963Z,3.40
2023-08-03T05:19:33.094Z,3.77
2023-08-03T05:22:35.389Z,3.08
2023-08-03T05:25:37.720Z,3.05
2023-08-03T05:28:40.109Z,3.42
2023-08-03T05:31:42.891Z,3.60
2023-08-03T05:34:45.621Z,3.30
2023-08-03T05:37:48.036Z,3.63
2023-08-03T05:40:51.905Z,3.22
2023-08-03T05:43:54.586Z,3.20
2023-08-03T05:46:57.070Z,3.63
2023-08-03T05:49:59.444Z,3.43
2023-08-03T05:53:05.194Z,3.13
2023-08-03T05:56:12.811Z,3.40
2023-08-03T05:59:23.127Z,3.50
2023-08-03T06:02:36.261Z,3.67
2023-08-03T06:05:46.698Z,3.80
2023-08-03T06:08:52.151Z,3.45
2023-08-03T06:11:54.522Z,2.53
2023-08-03T06:14:56.910Z,3.67
2023-08-03T06:18:04.591Z,3.15
2023-08-03T06:21:07.068Z,3.40
2023-08-03T06:24:09.364Z,3.25
2023-08-03T06:27:13.090Z,3.40
2023-08-03T06:30:15.800Z,3.20
2023-08-03T06:33:25.121Z,2.75
2023-08-03T06:36:28.664Z,3.40
2023-08-03T06:39:31.001Z,3.40
2023-08-03T06:42:33.299Z,3.45
2023-08-03T06:45:36.302Z,2.90
2023-08-03T06:48:41.641Z,3.38
2023-08-03T06:51:44.524Z,3.67
2023-08-03T06:54:47.493Z,3.47
2023-08-03T06:57:50.206Z,3.72
2023-08-03T07:00:54.860Z,3.90
2023-08-03T07:03:57.316Z,2.90
2023-08-03T07:06:59.701Z,3.27
2023-08-03T07:10:02.118Z,3.60
2023-08-03T07:13:05.637Z,4.10
2023-08-03T07:16:11.191Z,4.00
2023-08-03T07:19:14.394Z,3.88
2023-08-03T07:22:16.837Z,4.57
2023-08-03T07:25:19.175Z,4.65
2023-08-03T07:28:21.620Z,5.00
2023-08-03T07:31:25.668Z,4.75
2023-08-03T07:34:28.020Z,5.30
2023-08-03T07:37:30.281Z,5.03
2023-08-03T07:40:32.576Z,4.88
2023-08-03T07:43:34.860Z,5.38
2023-08-03T07:46:37.489Z,5.97
2023-08-03T07:49:39.870Z,5.80
2023-08-03T07:52:42.252Z,9.07
2023-08-03T07:55:47.560Z,6.05
2023-08-03T07:58:52.614Z,5.60
2023-08-03T08:01:54.991Z,5.10
2023-08-03T08:04:57.363Z,5.55
2023-08-03T08:07:59.781Z,5.87
2023-08-03T08:11:11.012Z,5.43
2023-08-03T08:14:15.139Z,5.63
2023-08-03T08:17:17.640Z,5.80
2023-08-03T08:20:20.186Z,6.50
2023-08-03T08:23:23.234Z,6.50
2023-08-03T08:26:26.818Z,6.45
2023-08-03T08:29:29.236Z,6.40
2023-08-03T08:32:31.833Z,6.50
2023-08-03T08:35:34.356Z,6.47
2023-08-03T08:38:36.673Z,5.60
2023-08-03T08:41:43.010Z,5.32
2023-08-03T08:44:45.859Z,5.18
2023-08-03T08:47:48.745Z,5.32
2023-08-03T08:57:08.390Z,5.35
2023-08-03T09:00:12.702Z,5.40
2023-08-03T09:03:16.977Z,4.90
2023-08-03T09:09:29.323Z,4.93
2023-08-03T09:12:31.938Z,4.70
2023-08-03T09:15:43.877Z,5.20
2023-08-03T09:18:46.368Z,5.30
2023-08-03T09:25:09.970Z,5.10
2023-08-03T09:34:49.526Z,4.83
2023-08-03T09:37:54.442Z,5.22
2023-08-03T09:40:47.459Z,4.85
2023-08-03T09:40:56.834Z,5.20
2023-08-03T09:44:00.209Z,5.15
2023-08-03T09:47:03.339Z,5.57
2023-08-03T09:50:05.918Z,5.50
2023-08-03T09:53:16.810Z,5.50
2023-08-03T09:56:26.110Z,5.45
2023-08-03T09:59:34.045Z,5.30
2023-08-03T10:02:44.508Z,5.70
2023-08-03T10:06:00.716Z,4.90
2023-08-03T10:09:05.450Z,5.25
2023-08-03T10:12:13.847Z,5.50
2023-08-03T10:15:18.177Z,5.25
2023-08-03T10:18:38.353Z,7.50
2023-08-03T10:21:44.700Z,4.80
2023-08-03T10:25:17.310Z,5.03
2023-08-03T10:28:21.173Z,5.22
2023-08-03T10:31:23.554Z,4.82
2023-08-03T10:34:30.465Z,4.68
2023-08-03T10:37:32.793Z,4.30
2023-08-03T10:40:35.119Z,4.90
2023-08-03T10:43:37.631Z,4.78
2023-08-03T10:46:50.710Z,4.05
2023-08-03T10:49:54.911Z,3.65
2023-08-03T10:52:57.270Z,3.47
2023-08-03T10:56:11.911Z,3.25
2023-08-03T10:59:14.433Z,3.03
2023-08-03T11:02:23.514Z,3.17
2023-08-03T11:05:26.104Z,4.63
2023-08-03T11:08:28.575Z,3.07
2023-08-03T11:11:34.142Z,3.20
2023-08-03T11:14:37.012Z,3.22
2023-08-03T11:17:43.484Z,3.20
2023-08-03T11:20:49.639Z,3.30
2023-08-03T11:23:52.462Z,3.47
2023-08-03T11:26:55.009Z,3.92
2023-08-03T11:30:00.810Z,3.80
2023-08-03T11:33:03.224Z,4.13
2023-08-03T11:36:05.994Z,4.40
2023-08-03T11:39:08.794Z,4.00
2023-08-03T11:42:12.049Z,4.05
2023-08-03T11:45:14.388Z,4.20
2023-08-03T11:48:20.678Z,4.05
2023-08-03T11:51:34.642Z,3.90
2023-08-03T11:54:39.354Z,4.00
2023-08-03T11:58:00.196Z,3.28
2023-08-03T12:01:05.964Z,5.32
2023-08-03T12:10:19.751Z,1.70
2023-08-03T12:13:22.202Z,1.42
2023-08-03T12:16:24.666Z,1.42
2023-08-03T12:19:35.224Z,2.47
2023-08-03T12:22:38.201Z,1.70
2023-08-03T12:25:42.558Z,1.40
2023-08-03T12:28:45.126Z,1.55
2023-08-03T12:31:47.751Z,1.50
2023-08-03T12:34:50.565Z,1.58
2023-08-03T12:37:57.992Z,1.90
2023-08-03T12:41:01.369Z,1.77
2023-08-03T12:44:03.831Z,2.03
2023-08-03T12:47:09.122Z,2.00
2023-08-03T12:50:12.512Z,2.10
2023-08-03T12:53:15.437Z,2.03
2023-08-03T12:56:19.237Z,2.17
2023-08-03T12:59:24.559Z,2.30
2023-08-03T13:02:30.241Z,2.33
2023-08-03T13:05:34.055Z,2.50
2023-08-03T13:08:36.480Z,2.45
2023-08-03T13:11:38.831Z,2.30
2023-08-03T13:14:41.609Z,2.30
2023-08-03T13:17:44.037Z,2.35
2023-08-03T13:20:49.369Z,1.60
2023-08-03T13:23:52.483Z,1.80
2023-08-03T13:27:12.530Z,1.60
2023-08-03T13:30:15.644Z,1.70
2023-08-03T13:33:18.058Z,2.20
2023-08-03T13:36:20.686Z,2.30
2023-08-03T13:39:23.099Z,2.40
2023-08-03T13:42:25.448Z,2.20
2023-08-03T13:45:27.735Z,2.28
2023-08-03T13:48:30.214Z,2.50
2023-08-03T13:51:32.598Z,2.35
2023-08-03T13:54:34.885Z,2.35
2023-08-03T13:57:41.849Z,1.90
2023-08-03T14:00:47.268Z,2.13
2023-08-03T14:03:49.903Z,2.17
2023-08-03T14:13:03.380Z,2.30
2023-08-03T14:19:16.869Z,3.13
2023-08-03T14:22:19.222Z,2.22
2023-08-03T14:31:32.809Z,2.40
2023-08-03T14:37:41.134Z,3.28
2023-08-03T14:40:48.522Z,2.50
2023-08-03T14:43:51.590Z,2.70
2023-08-03T14:47:00.720Z,2.30
2023-08-03T14:53:09.777Z,2.58
2023-08-03T14:59:17.377Z,2.53
2023-08-03T15:02:20.739Z,2.53
2023-08-03T15:05:23.622Z,2.50
2023-08-03T15:08:26.150Z,2.70
2023-08-03T15:11:28.657Z,2.80
2023-08-03T15:14:31.219Z,2.80
2023-08-03T15:17:38.192Z,2.60
2023-08-03T15:20:42.922Z,2.70
2023-08-03T15:23:48.055Z,2.40
2023-08-03T15:26:56.151Z,2.38
2023-08-03T15:30:01.012Z,2.00
2023-08-03T15:36:12.820Z,2.45
2023-08-03T15:39:19.065Z,2.10
2023-08-03T15:42:26.502Z,2.00
2023-08-03T15:45:35.742Z,2.23
2023-08-03T15:51:47.835Z,2.30
2023-08-03T15:54:57.446Z,1.98
2023-08-03T15:58:16.175Z,2.10
2023-08-03T16:01:18.767Z,2.10
2023-08-03T16:04:21.326Z,2.22
2023-08-03T16:07:23.765Z,2.17
2023-08-03T16:10:26.157Z,2.20
2023-08-03T16:13:32.579Z,2.28
2023-08-03T16:16:35.050Z,1.80
2023-08-03T16:19:39.902Z,2.00
2023-08-03T16:22:42.389Z,2.30
2023-08-03T16:25:44.711Z,1.80
2023-08-03T16:28:47.105Z,1.52
2023-08-03T16:34:56.779Z,1.70
2023-08-03T16:38:01.248Z,1.70
2023-08-03T16:41:06.561Z,2.00
2023-08-03T16:44:09.014Z,1.58
2023-08-03T16:47:11.997Z,1.77
2023-08-03T16:50:14.531Z,1.80
2023-08-03T16:53:16.831Z,1.75
2023-08-03T16:56:19.177Z,1.50
2023-08-03T16:59:21.588Z,1.65
2023-08-03T17:02:23.864Z,1.53
2023-08-03T17:05:26.856Z,1.25
2023-08-03T17:08:29.239Z,1.30
2023-08-03T17:11:34.370Z,1.30
2023-08-03T17:14:37.936Z,1.35
2023-08-03T17:17:40.320Z,1.17
2023-08-03T17:20:42.719Z,1.50
2023-08-03T17:23:45.117Z,1.50
2023-08-03T17:26:49.486Z,1.50
2023-08-03T17:29:51.897Z,1.85
2023-08-03T17:32:54.644Z,1.47
2023-08-03T17:35:57.289Z,2.15
2023-08-03T17:39:00.085Z,2.20
2023-08-03T17:42:02.439Z,1.90
2023-08-03T17:45:05.185Z,2.50
2023-08-03T17:48:07.609Z,1.77
2023-08-03T17:51:12.381Z,1.60
2023-08-03T17:54:14.742Z,1.90
2023-08-03T17:57:17.075Z,2.22
2023-08-03T18:00:19.608Z,1.73
2023-08-03T18:03:22.074Z,1.83
2023-08-03T18:06:26.646Z,2.20
2023-08-03T18:09:29.858Z,2.30
2023-08-03T18:12:32.543Z,2.10
2023-08-03T18:15:36.249Z,2.25
2023-08-03T18:18:40.834Z,2.60
2023-08-03T18:21:43.419Z,2.22
2023-08-03T18:24:49.143Z,2.22
2023-08-03T18:27:51.614Z,1.75
2023-08-03T18:31:20.577Z,1.95
2023-08-03T18:34:22.988Z,2.10
2023-08-03T18:37:25.514Z,1.70
2023-08-03T18:40:30.043Z,1.70
2023-08-03T18:43:34.218Z,1.70
2023-08-03T18:46:37.189Z,1.75
2023-08-03T18:49:39.528Z,1.50
2023-08-03T18:52:41.865Z,2.35
2023-08-03T18:55:44.332Z,2.00
2023-08-03T18:58:48.849Z,2.10
2023-08-03T19:01:51.373Z,1.90
2023-08-03T19:04:53.789Z,1.93
2023-08-03T19:07:56.054Z,1.70
2023-08-03T19:10:59.782Z,2.20
2023-08-03T19:14:03.230Z,2.10
2023-08-03T19:17:08.093Z,2.00
2023-08-03T19:20:13.819Z,2.20
2023-08-03T19:23:16.867Z,2.15
2023-08-03T19:26:19.739Z,2.20
2023-08-03T19:29:23.638Z,1.90
2023-08-03T19:32:26.541Z,2.25
2023-08-03T19:35:29.588Z,2.17
2023-08-03T19:38:33.798Z,2.03
2023-08-03T19:41:36.237Z,2.30
2023-08-03T19:44:38.530Z,2.50
2023-08-03T19:47:40.922Z,2.65
2023-08-03T19:53:48.442Z,2.83
2023-08-03T19:56:52.854Z,2.15
2023-08-03T20:09:11.311Z,3.30
2023-08-03T20:12:13.756Z,3.30
2023-08-03T20:15:17.078Z,3.13
2023-08-03T20:18:22.518Z,2.83
2023-08-03T20:21:24.972Z,2.80
2023-08-03T20:24:27.364Z,2.75
2023-08-03T20:27:29.828Z,3.20
2023-08-03T20:30:32.181Z,3.28
2023-08-03T20:33:34.552Z,3.50
2023-08-03T20:36:38.065Z,3.13
2023-08-03T20:39:40.795Z,2.78
2023-08-03T20:42:43.209Z,2.80
2023-08-03T20:45:49.648Z,2.97
2023-08-03T20:48:52.722Z,2.47
2023-08-03T20:51:55.151Z,2.43
2023-08-03T20:54:57.902Z,2.88
2023-08-03T20:58:00.943Z,3.08
2023-08-03T21:01:03.377Z,2.60
2023-08-03T21:04:05.981Z,2.60
2023-08-03T21:07:08.423Z,2.07
2023-08-03T21:13:16.428Z,2.40
2023-08-03T21:16:18.935Z,2.35
2023-08-03T21:19:23.304Z,2.40
2023-08-03T21:22:25.679Z,1.90
2023-08-03T21:25:28.032Z,2.45
2023-08-03T21:28:30.370Z,2.10
2023-08-03T21:31:38.291Z,2.30
2023-08-03T21:34:41.744Z,2.40
2023-08-03T21:37:46.065Z,1.90
2023-08-03T21:40:49.296Z,1.92
2023-08-03T21:43:51.810Z,2.28
2023-08-03T21:46:54.241Z,2.10
2023-08-03T21:49:57.992Z,1.80
2023-08-03T21:53:00.298Z,2.13
2023-08-03T21:56:02.707Z,2.30
2023-08-03T21:59:05.128Z,2.10
2023-08-03T22:02:08.343Z,1.73
2023-08-03T22:05:12.537Z,2.35
2023-08-03T22:08:15.196Z,2.60
2023-08-03T22:11:19.413Z,2.50
2023-08-03T22:14:21.877Z,1.90
2023-08-03T22:17:24.191Z,1.95
2023-08-03T22:20:26.549Z,3.70
2023-08-03T22:23:28.972Z,3.00
2023-08-03T22:26:31.336Z,3.10
2023-08-03T22:29:33.753Z,3.13
2023-08-03T22:32:36.224Z,2.80
2023-08-03T22:35:38.632Z,2.60
2023-08-03T22:38:45.907Z,2.97
2023-08-03T22:41:48.564Z,3.45
2023-08-03T22:44:51.219Z,2.92
2023-08-03T22:51:16.803Z,3.20
2023-08-03T22:54:19.323Z,3.10
2023-08-03T22:57:22.015Z,3.17
2023-08-03T23:00:24.400Z,2.45
2023-08-03T23:03:28.848Z,3.40
2023-08-03T23:06:31.290Z,3.17
2023-08-03T23:09:34.169Z,3.50
2023-08-03T23:12:38.168Z,3.47
2023-08-03T23:15:40.909Z,3.65
2023-08-03T23:18:43.198Z,3.40
2023-08-03T23:21:45.639Z,3.03
2023-08-03T23:24:48.907Z,3.23
2023-08-03T23:27:51.212Z,3.70
2023-08-03T23:30:53.541Z,3.05
2023-08-03T23:33:55.872Z,3.42
2023-08-03T23:36:58.380Z,4.28
2023-08-03T23:40:00.698Z,3.93
2023-08-03T23:43:03.032Z,3.70
2023-08-03T23:46:05.454Z,3.47
2023-08-03T23:49:07.760Z,3.30
2023-08-03T23:52:10.136Z,3.50
2023-08-03T23:55:12.579Z,3.50
2023-08-03T23:58:14.861Z,3.78
